sensor_id;sensor_type;location;lat;lon;timestamp;P1;durP1;ratioP1;P2;durP2;ratioP2
42244;SDS011;27912;51.828;5.688;2022-10-16T00:00:36;5.00;;;1.33;;
42244;SDS011;27912;51.828;5.688;2022-10-16T00:03:03;3.40;;;1.33;;
42244;SDS011;27912;51.828;5.688;2022-10-16T00:05:29;5.35;;;1.52;;
42244;SDS011;27912;51.828;5.688;2022-10-16T00:07:55;3.47;;;1.40;;
42244;SDS011;27912;51.828;5.688;2022-10-16T00:10:21;4.50;;;1.25;;
42244;SDS011;27912;51.828;5.688;2022-10-16T00:12:46;5.18;;;1.27;;
42244;SDS011;27912;51.828;5.688;2022-10-16T00:15:12;6.72;;;1.42;;
42244;SDS011;27912;51.828;5.688;2022-10-16T00:17:37;6.72;;;1.67;;
42244;SDS011;27912;51.828;5.688;2022-10-16T00:20:03;5.38;;;1.50;;
42244;SDS011;27912;51.828;5.688;2022-10-16T00:22:29;4.43;;;1.23;;
42244;SDS011;27912;51.828;5.688;2022-10-16T00:24:55;6.90;;;1.65;;
42244;SDS011;27912;51.828;5.688;2022-10-16T00:27:20;7.85;;;1.77;;
42244;SDS011;27912;51.828;5.688;2022-10-16T00:29:49;4.45;;;1.70;;
42244;SDS011;27912;51.828;5.688;2022-10-16T00:32:16;6.30;;;1.50;;
42244;SDS011;27912;51.828;5.688;2022-10-16T00:34:43;6.63;;;1.95;;
42244;SDS011;27912;51.828;5.688;2022-10-16T00:37:08;4.55;;;1.60;;
42244;SDS011;27912;51.828;5.688;2022-10-16T00:39:34;5.78;;;1.92;;
42244;SDS011;27912;51.828;5.688;2022-10-16T00:41:59;3.85;;;2.22;;
42244;SDS011;27912;51.828;5.688;2022-10-16T00:47:27;6.97;;;2.30;;
42244;SDS011;27912;51.828;5.688;2022-10-16T00:50:16;5.35;;;2.72;;
42244;SDS011;27912;51.828;5.688;2022-10-16T00:52:54;4.90;;;2.00;;
42244;SDS011;27912;51.828;5.688;2022-10-16T00:55:20;7.95;;;2.45;;
42244;SDS011;27912;51.828;5.688;2022-10-16T00:57:47;7.68;;;2.38;;
42244;SDS011;27912;51.828;5.688;2022-10-16T01:00:15;6.10;;;2.13;;
42244;SDS011;27912;51.828;5.688;2022-10-16T01:02:51;4.38;;;2.25;;
42244;SDS011;27912;51.828;5.688;2022-10-16T01:05:31;6.72;;;2.33;;
42244;SDS011;27912;51.828;5.688;2022-10-16T01:08:12;7.25;;;3.20;;
42244;SDS011;27912;51.828;5.688;2022-10-16T01:13:41;7.43;;;2.47;;
42244;SDS011;27912;51.828;5.688;2022-10-16T01:16:15;11.55;;;2.55;;
42244;SDS011;27912;51.828;5.688;2022-10-16T01:18:48;7.18;;;2.63;;
42244;SDS011;27912;51.828;5.688;2022-10-16T01:21:28;7.78;;;2.30;;
42244;SDS011;27912;51.828;5.688;2022-10-16T01:24:11;6.03;;;2.35;;
42244;SDS011;27912;51.828;5.688;2022-10-16T01:29:29;5.97;;;2.40;;
42244;SDS011;27912;51.828;5.688;2022-10-16T01:32:02;4.15;;;1.98;;
42244;SDS011;27912;51.828;5.688;2022-10-16T01:34:53;5.65;;;2.65;;
42244;SDS011;27912;51.828;5.688;2022-10-16T01:37:30;5.07;;;2.17;;
42244;SDS011;27912;51.828;5.688;2022-10-16T01:40:19;3.33;;;1.92;;
42244;SDS011;27912;51.828;5.688;2022-10-16T01:42:56;8.43;;;1.73;;
42244;SDS011;27912;51.828;5.688;2022-10-16T01:45:35;4.50;;;2.25;;
42244;SDS011;27912;51.828;5.688;2022-10-16T01:48:02;7.20;;;2.03;;
42244;SDS011;27912;51.828;5.688;2022-10-16T01:50:33;4.80;;;1.98;;
42244;SDS011;27912;51.828;5.688;2022-10-16T01:53:03;4.40;;;1.70;;
42244;SDS011;27912;51.828;5.688;2022-10-16T01:55:33;5.20;;;1.77;;
42244;SDS011;27912;51.828;5.688;2022-10-16T01:58:02;4.20;;;1.63;;
42244;SDS011;27912;51.828;5.688;2022-10-16T02:00:31;3.05;;;1.48;;
42244;SDS011;27912;51.828;5.688;2022-10-16T02:02:57;5.57;;;2.28;;
42244;SDS011;27912;51.828;5.688;2022-10-16T02:08:11;2.85;;;1.45;;
42244;SDS011;27912;51.828;5.688;2022-10-16T02:10:37;4.13;;;1.52;;
42244;SDS011;27912;51.828;5.688;2022-10-16T02:13:06;4.50;;;1.65;;
42244;SDS011;27912;51.828;5.688;2022-10-16T02:15:35;5.13;;;1.50;;
42244;SDS011;27912;51.828;5.688;2022-10-16T02:18:01;5.30;;;1.55;;
42244;SDS011;27912;51.828;5.688;2022-10-16T02:20:29;5.57;;;1.48;;
42244;SDS011;27912;51.828;5.688;2022-10-16T02:22:59;5.20;;;1.80;;
42244;SDS011;27912;51.828;5.688;2022-10-16T02:25:30;4.05;;;1.40;;
42244;SDS011;27912;51.828;5.688;2022-10-16T02:28:04;3.63;;;1.80;;
42244;SDS011;27912;51.828;5.688;2022-10-16T02:30:39;4.68;;;1.42;;
42244;SDS011;27912;51.828;5.688;2022-10-16T02:33:15;9.05;;;2.08;;
42244;SDS011;27912;51.828;5.688;2022-10-16T02:35:43;4.32;;;1.48;;
42244;SDS011;27912;51.828;5.688;2022-10-16T02:38:11;4.15;;;1.30;;
42244;SDS011;27912;51.828;5.688;2022-10-16T02:40:38;2.83;;;1.50;;
42244;SDS011;27912;51.828;5.688;2022-10-16T02:43:05;4.25;;;1.88;;
42244;SDS011;27912;51.828;5.688;2022-10-16T02:45:31;5.75;;;1.50;;
42244;SDS011;27912;51.828;5.688;2022-10-16T02:47:57;5.65;;;1.30;;
42244;SDS011;27912;51.828;5.688;2022-10-16T02:50:22;3.78;;;1.50;;
42244;SDS011;27912;51.828;5.688;2022-10-16T02:52:49;4.50;;;1.35;;
42244;SDS011;27912;51.828;5.688;2022-10-16T02:55:15;4.53;;;1.60;;
42244;SDS011;27912;51.828;5.688;2022-10-16T02:57:41;4.80;;;1.60;;
42244;SDS011;27912;51.828;5.688;2022-10-16T03:00:11;2.83;;;0.98;;
42244;SDS011;27912;51.828;5.688;2022-10-16T03:02:39;6.88;;;1.67;;
42244;SDS011;27912;51.828;5.688;2022-10-16T03:05:05;2.72;;;1.25;;
42244;SDS011;27912;51.828;5.688;2022-10-16T03:07:31;3.13;;;1.27;;
42244;SDS011;27912;51.828;5.688;2022-10-16T03:09:57;2.97;;;1.10;;
42244;SDS011;27912;51.828;5.688;2022-10-16T03:12:25;4.55;;;1.42;;
42244;SDS011;27912;51.828;5.688;2022-10-16T03:14:53;5.57;;;1.65;;
42244;SDS011;27912;51.828;5.688;2022-10-16T03:17:20;3.15;;;1.05;;
42244;SDS011;27912;51.828;5.688;2022-10-16T03:19:45;2.72;;;1.45;;
42244;SDS011;27912;51.828;5.688;2022-10-16T03:22:11;4.22;;;1.50;;
42244;SDS011;27912;51.828;5.688;2022-10-16T03:24:36;5.35;;;1.58;;
42244;SDS011;27912;51.828;5.688;2022-10-16T03:27:02;4.25;;;1.65;;
42244;SDS011;27912;51.828;5.688;2022-10-16T03:29:27;5.20;;;1.77;;
42244;SDS011;27912;51.828;5.688;2022-10-16T03:31:54;2.78;;;1.23;;
42244;SDS011;27912;51.828;5.688;2022-10-16T03:34:20;2.45;;;1.33;;
42244;SDS011;27912;51.828;5.688;2022-10-16T03:36:46;2.65;;;1.35;;
42244;SDS011;27912;51.828;5.688;2022-10-16T03:39:11;3.92;;;1.63;;
42244;SDS011;27912;51.828;5.688;2022-10-16T03:41:37;3.80;;;1.60;;
42244;SDS011;27912;51.828;5.688;2022-10-16T03:44:02;4.22;;;2.25;;
42244;SDS011;27912;51.828;5.688;2022-10-16T03:46:28;4.68;;;1.60;;
42244;SDS011;27912;51.828;5.688;2022-10-16T03:48:54;4.47;;;1.80;;
42244;SDS011;27912;51.828;5.688;2022-10-16T03:51:19;3.58;;;1.50;;
42244;SDS011;27912;51.828;5.688;2022-10-16T03:53:45;3.95;;;2.00;;
42244;SDS011;27912;51.828;5.688;2022-10-16T03:56:11;3.63;;;1.10;;
42244;SDS011;27912;51.828;5.688;2022-10-16T03:58:36;5.13;;;1.20;;
42244;SDS011;27912;51.828;5.688;2022-10-16T04:01:02;5.75;;;1.65;;
42244;SDS011;27912;51.828;5.688;2022-10-16T04:03:27;4.15;;;1.38;;
42244;SDS011;27912;51.828;5.688;2022-10-16T04:05:53;3.83;;;1.30;;
42244;SDS011;27912;51.828;5.688;2022-10-16T04:08:18;4.07;;;1.38;;
42244;SDS011;27912;51.828;5.688;2022-10-16T04:10:44;4.18;;;1.60;;
42244;SDS011;27912;51.828;5.688;2022-10-16T04:13:10;4.13;;;1.52;;
42244;SDS011;27912;51.828;5.688;2022-10-16T04:15:36;3.35;;;1.55;;
42244;SDS011;27912;51.828;5.688;2022-10-16T04:18:02;7.38;;;1.55;;
42244;SDS011;27912;51.828;5.688;2022-10-16T04:20:28;2.30;;;1.20;;
42244;SDS011;27912;51.828;5.688;2022-10-16T04:22:53;2.45;;;1.23;;
42244;SDS011;27912;51.828;5.688;2022-10-16T04:25:19;3.90;;;1.55;;
42244;SDS011;27912;51.828;5.688;2022-10-16T04:27:44;3.63;;;1.58;;
42244;SDS011;27912;51.828;5.688;2022-10-16T04:30:10;2.75;;;1.30;;
42244;SDS011;27912;51.828;5.688;2022-10-16T04:32:35;3.90;;;1.52;;
42244;SDS011;27912;51.828;5.688;2022-10-16T04:35:01;3.08;;;1.40;;
42244;SDS011;27912;51.828;5.688;2022-10-16T04:37:27;5.40;;;1.42;;
42244;SDS011;27912;51.828;5.688;2022-10-16T04:39:53;7.28;;;1.52;;
42244;SDS011;27912;51.828;5.688;2022-10-16T04:42:19;2.35;;;1.40;;
42244;SDS011;27912;51.828;5.688;2022-10-16T04:44:45;4.82;;;1.50;;
42244;SDS011;27912;51.828;5.688;2022-10-16T04:47:11;5.28;;;1.70;;
42244;SDS011;27912;51.828;5.688;2022-10-16T04:49:37;3.72;;;1.67;;
42244;SDS011;27912;51.828;5.688;2022-10-16T04:52:02;9.73;;;2.00;;
42244;SDS011;27912;51.828;5.688;2022-10-16T04:54:28;6.32;;;1.35;;
42244;SDS011;27912;51.828;5.688;2022-10-16T04:56:53;4.63;;;1.52;;
42244;SDS011;27912;51.828;5.688;2022-10-16T04:59:19;5.57;;;1.58;;
42244;SDS011;27912;51.828;5.688;2022-10-16T05:01:46;3.60;;;1.45;;
42244;SDS011;27912;51.828;5.688;2022-10-16T05:04:12;3.80;;;1.27;;
42244;SDS011;27912;51.828;5.688;2022-10-16T05:06:37;3.00;;;1.17;;
42244;SDS011;27912;51.828;5.688;2022-10-16T05:09:03;3.50;;;1.55;;
42244;SDS011;27912;51.828;5.688;2022-10-16T05:11:29;3.58;;;1.40;;
42244;SDS011;27912;51.828;5.688;2022-10-16T05:13:55;3.75;;;1.63;;
42244;SDS011;27912;51.828;5.688;2022-10-16T05:16:21;3.88;;;1.33;;
42244;SDS011;27912;51.828;5.688;2022-10-16T05:18:46;2.33;;;1.00;;
42244;SDS011;27912;51.828;5.688;2022-10-16T05:21:12;9.68;;;1.80;;
42244;SDS011;27912;51.828;5.688;2022-10-16T05:23:37;4.55;;;1.52;;
42244;SDS011;27912;51.828;5.688;2022-10-16T05:26:03;3.92;;;1.75;;
42244;SDS011;27912;51.828;5.688;2022-10-16T05:28:29;3.92;;;1.38;;
42244;SDS011;27912;51.828;5.688;2022-10-16T05:30:56;3.83;;;1.90;;
42244;SDS011;27912;51.828;5.688;2022-10-16T05:33:23;5.03;;;2.08;;
42244;SDS011;27912;51.828;5.688;2022-10-16T05:35:50;3.75;;;1.30;;
42244;SDS011;27912;51.828;5.688;2022-10-16T05:38:16;4.40;;;1.70;;
42244;SDS011;27912;51.828;5.688;2022-10-16T05:40:42;3.92;;;1.52;;
42244;SDS011;27912;51.828;5.688;2022-10-16T05:43:08;3.80;;;1.52;;
42244;SDS011;27912;51.828;5.688;2022-10-16T05:45:34;6.15;;;1.77;;
42244;SDS011;27912;51.828;5.688;2022-10-16T05:48:00;4.43;;;1.58;;
42244;SDS011;27912;51.828;5.688;2022-10-16T05:50:26;4.28;;;1.77;;
42244;SDS011;27912;51.828;5.688;2022-10-16T05:52:52;4.55;;;1.70;;
42244;SDS011;27912;51.828;5.688;2022-10-16T05:55:17;3.97;;;1.90;;
42244;SDS011;27912;51.828;5.688;2022-10-16T05:57:43;4.22;;;1.90;;
42244;SDS011;27912;51.828;5.688;2022-10-16T06:00:09;4.95;;;2.00;;
42244;SDS011;27912;51.828;5.688;2022-10-16T06:02:35;9.40;;;2.03;;
42244;SDS011;27912;51.828;5.688;2022-10-16T06:05:01;7.68;;;2.03;;
42244;SDS011;27912;51.828;5.688;2022-10-16T06:07:26;6.25;;;2.17;;
42244;SDS011;27912;51.828;5.688;2022-10-16T06:09:52;6.00;;;2.03;;
42244;SDS011;27912;51.828;5.688;2022-10-16T06:12:18;5.75;;;1.55;;
42244;SDS011;27912;51.828;5.688;2022-10-16T06:14:45;3.00;;;1.80;;
42244;SDS011;27912;51.828;5.688;2022-10-16T06:17:12;7.40;;;1.88;;
42244;SDS011;27912;51.828;5.688;2022-10-16T06:19:40;5.00;;;2.10;;
42244;SDS011;27912;51.828;5.688;2022-10-16T06:22:06;8.25;;;1.85;;
42244;SDS011;27912;51.828;5.688;2022-10-16T06:24:32;4.97;;;1.80;;
42244;SDS011;27912;51.828;5.688;2022-10-16T06:26:57;7.75;;;2.22;;
42244;SDS011;27912;51.828;5.688;2022-10-16T06:29:23;5.63;;;2.15;;
42244;SDS011;27912;51.828;5.688;2022-10-16T06:31:48;4.30;;;2.47;;
42244;SDS011;27912;51.828;5.688;2022-10-16T06:34:14;7.40;;;2.08;;
42244;SDS011;27912;51.828;5.688;2022-10-16T06:36:40;4.90;;;2.30;;
42244;SDS011;27912;51.828;5.688;2022-10-16T06:39:08;5.82;;;1.92;;
42244;SDS011;27912;51.828;5.688;2022-10-16T06:41:34;3.90;;;1.77;;
42244;SDS011;27912;51.828;5.688;2022-10-16T06:43:59;7.53;;;2.22;;
42244;SDS011;27912;51.828;5.688;2022-10-16T06:46:25;6.93;;;2.08;;
42244;SDS011;27912;51.828;5.688;2022-10-16T06:48:52;5.63;;;2.22;;
42244;SDS011;27912;51.828;5.688;2022-10-16T06:51:19;4.13;;;2.03;;
42244;SDS011;27912;51.828;5.688;2022-10-16T06:53:51;5.68;;;1.95;;
42244;SDS011;27912;51.828;5.688;2022-10-16T06:56:22;6.65;;;1.63;;
42244;SDS011;27912;51.828;5.688;2022-10-16T06:58:50;5.55;;;1.98;;
42244;SDS011;27912;51.828;5.688;2022-10-16T07:01:18;3.60;;;1.60;;
42244;SDS011;27912;51.828;5.688;2022-10-16T07:03:45;3.47;;;1.70;;
42244;SDS011;27912;51.828;5.688;2022-10-16T07:06:11;4.53;;;1.67;;
42244;SDS011;27912;51.828;5.688;2022-10-16T07:08:40;5.53;;;2.03;;
42244;SDS011;27912;51.828;5.688;2022-10-16T07:11:07;4.50;;;1.42;;
42244;SDS011;27912;51.828;5.688;2022-10-16T07:13:36;3.53;;;1.40;;
42244;SDS011;27912;51.828;5.688;2022-10-16T07:16:04;4.70;;;1.63;;
42244;SDS011;27912;51.828;5.688;2022-10-16T07:18:33;5.85;;;1.63;;
42244;SDS011;27912;51.828;5.688;2022-10-16T07:21:03;5.20;;;1.60;;
42244;SDS011;27912;51.828;5.688;2022-10-16T07:23:33;5.75;;;1.80;;
42244;SDS011;27912;51.828;5.688;2022-10-16T07:25:59;4.47;;;1.58;;
42244;SDS011;27912;51.828;5.688;2022-10-16T07:28:25;4.07;;;1.55;;
42244;SDS011;27912;51.828;5.688;2022-10-16T07:30:50;6.00;;;1.75;;
42244;SDS011;27912;51.828;5.688;2022-10-16T07:33:16;5.88;;;1.35;;
42244;SDS011;27912;51.828;5.688;2022-10-16T07:35:51;5.22;;;1.52;;
42244;SDS011;27912;51.828;5.688;2022-10-16T07:38:17;4.82;;;1.23;;
42244;SDS011;27912;51.828;5.688;2022-10-16T07:40:43;5.40;;;1.60;;
42244;SDS011;27912;51.828;5.688;2022-10-16T07:43:09;8.52;;;1.60;;
42244;SDS011;27912;51.828;5.688;2022-10-16T07:45:37;5.00;;;1.42;;
42244;SDS011;27912;51.828;5.688;2022-10-16T07:48:11;5.07;;;1.52;;
42244;SDS011;27912;51.828;5.688;2022-10-16T07:50:37;6.82;;;1.58;;
42244;SDS011;27912;51.828;5.688;2022-10-16T07:53:03;6.07;;;1.20;;
42244;SDS011;27912;51.828;5.688;2022-10-16T07:55:29;4.72;;;1.10;;
42244;SDS011;27912;51.828;5.688;2022-10-16T07:57:55;5.07;;;1.27;;
42244;SDS011;27912;51.828;5.688;2022-10-16T08:00:20;4.25;;;1.75;;
42244;SDS011;27912;51.828;5.688;2022-10-16T08:02:48;6.95;;;1.60;;
42244;SDS011;27912;51.828;5.688;2022-10-16T08:05:14;3.97;;;1.17;;
42244;SDS011;27912;51.828;5.688;2022-10-16T08:07:40;4.82;;;1.38;;
42244;SDS011;27912;51.828;5.688;2022-10-16T08:10:06;4.05;;;1.23;;
42244;SDS011;27912;51.828;5.688;2022-10-16T08:12:34;6.90;;;1.05;;
42244;SDS011;27912;51.828;5.688;2022-10-16T08:15:00;3.17;;;1.00;;
42244;SDS011;27912;51.828;5.688;2022-10-16T08:17:25;4.63;;;1.77;;
42244;SDS011;27912;51.828;5.688;2022-10-16T08:19:54;2.92;;;0.80;;
42244;SDS011;27912;51.828;5.688;2022-10-16T08:22:20;4.28;;;1.00;;
42244;SDS011;27912;51.828;5.688;2022-10-16T08:24:45;5.45;;;0.70;;
42244;SDS011;27912;51.828;5.688;2022-10-16T08:27:11;3.10;;;0.85;;
42244;SDS011;27912;51.828;5.688;2022-10-16T08:29:37;6.85;;;0.80;;
42244;SDS011;27912;51.828;5.688;2022-10-16T08:32:03;4.40;;;0.93;;
42244;SDS011;27912;51.828;5.688;2022-10-16T08:34:29;2.67;;;1.00;;
42244;SDS011;27912;51.828;5.688;2022-10-16T08:36:55;2.83;;;0.90;;
42244;SDS011;27912;51.828;5.688;2022-10-16T08:39:28;3.78;;;1.00;;
42244;SDS011;27912;51.828;5.688;2022-10-16T08:47:13;3.75;;;1.70;;
42244;SDS011;27912;51.828;5.688;2022-10-16T08:49:57;5.07;;;1.10;;
42244;SDS011;27912;51.828;5.688;2022-10-16T08:52:30;4.03;;;0.80;;
42244;SDS011;27912;51.828;5.688;2022-10-16T08:55:00;5.90;;;0.88;;
42244;SDS011;27912;51.828;5.688;2022-10-16T08:57:26;5.53;;;0.93;;
42244;SDS011;27912;51.828;5.688;2022-10-16T08:59:53;6.35;;;0.80;;
42244;SDS011;27912;51.828;5.688;2022-10-16T09:05:10;3.25;;;0.70;;
42244;SDS011;27912;51.828;5.688;2022-10-16T09:08:09;4.18;;;1.02;;
42244;SDS011;27912;51.828;5.688;2022-10-16T09:10:57;3.97;;;0.73;;
42244;SDS011;27912;51.828;5.688;2022-10-16T09:16:17;4.38;;;0.88;;
42244;SDS011;27912;51.828;5.688;2022-10-16T09:21:36;5.75;;;0.77;;
42244;SDS011;27912;51.828;5.688;2022-10-16T09:24:13;6.75;;;0.73;;
42244;SDS011;27912;51.828;5.688;2022-10-16T09:26:41;3.58;;;1.10;;
42244;SDS011;27912;51.828;5.688;2022-10-16T09:29:14;5.07;;;1.23;;
42244;SDS011;27912;51.828;5.688;2022-10-16T09:31:41;5.10;;;0.80;;
42244;SDS011;27912;51.828;5.688;2022-10-16T09:37:08;3.60;;;1.13;;
42244;SDS011;27912;51.828;5.688;2022-10-16T09:39:44;6.95;;;0.85;;
42244;SDS011;27912;51.828;5.688;2022-10-16T09:44:50;6.88;;;0.73;;
42244;SDS011;27912;51.828;5.688;2022-10-16T09:47:20;7.05;;;0.82;;
42244;SDS011;27912;51.828;5.688;2022-10-16T09:52:31;5.10;;;0.60;;
42244;SDS011;27912;51.828;5.688;2022-10-16T09:55:02;5.68;;;0.70;;
42244;SDS011;27912;51.828;5.688;2022-10-16T10:00:18;5.90;;;1.35;;
42244;SDS011;27912;51.828;5.688;2022-10-16T10:02:45;8.43;;;0.70;;
42244;SDS011;27912;51.828;5.688;2022-10-16T10:05:21;6.63;;;0.93;;
42244;SDS011;27912;51.828;5.688;2022-10-16T10:07:57;8.32;;;0.80;;
42244;SDS011;27912;51.828;5.688;2022-10-16T10:10:28;7.60;;;0.73;;
42244;SDS011;27912;51.828;5.688;2022-10-16T10:12:56;7.97;;;0.52;;
42244;SDS011;27912;51.828;5.688;2022-10-16T10:15:24;13.95;;;0.80;;
42244;SDS011;27912;51.828;5.688;2022-10-16T10:17:54;7.40;;;0.70;;
42244;SDS011;27912;51.828;5.688;2022-10-16T10:20:30;7.05;;;0.50;;
42244;SDS011;27912;51.828;5.688;2022-10-16T10:22:59;5.25;;;0.90;;
42244;SDS011;27912;51.828;5.688;2022-10-16T10:25:35;8.48;;;1.13;;
42244;SDS011;27912;51.828;5.688;2022-10-16T10:28:35;10.93;;;0.85;;
42244;SDS011;27912;51.828;5.688;2022-10-16T10:31:33;7.85;;;1.30;;
42244;SDS011;27912;51.828;5.688;2022-10-16T10:37:34;12.48;;;0.70;;
42244;SDS011;27912;51.828;5.688;2022-10-16T10:40:08;7.05;;;0.50;;
42244;SDS011;27912;51.828;5.688;2022-10-16T10:45:44;5.05;;;0.65;;
42244;SDS011;27912;51.828;5.688;2022-10-16T10:48:16;8.07;;;0.57;;
42244;SDS011;27912;51.828;5.688;2022-10-16T10:51:04;8.07;;;0.93;;
42244;SDS011;27912;51.828;5.688;2022-10-16T10:53:46;8.30;;;0.60;;
42244;SDS011;27912;51.828;5.688;2022-10-16T11:02:04;9.27;;;0.60;;
42244;SDS011;27912;51.828;5.688;2022-10-16T11:04:55;11.05;;;0.80;;
42244;SDS011;27912;51.828;5.688;2022-10-16T11:10:56;8.00;;;0.60;;
42244;SDS011;27912;51.828;5.688;2022-10-16T11:13:35;8.68;;;0.57;;
42244;SDS011;27912;51.828;5.688;2022-10-16T11:16:21;4.63;;;0.30;;
42244;SDS011;27912;51.828;5.688;2022-10-16T11:19:11;5.93;;;0.50;;
42244;SDS011;27912;51.828;5.688;2022-10-16T11:22:00;9.15;;;0.77;;
42244;SDS011;27912;51.828;5.688;2022-10-16T11:24:36;8.77;;;1.02;;
42244;SDS011;27912;51.828;5.688;2022-10-16T11:27:07;9.35;;;0.47;;
42244;SDS011;27912;51.828;5.688;2022-10-16T11:29:39;11.43;;;0.85;;
42244;SDS011;27912;51.828;5.688;2022-10-16T11:36:16;11.45;;;0.75;;
42244;SDS011;27912;51.828;5.688;2022-10-16T11:38:44;8.43;;;0.93;;
42244;SDS011;27912;51.828;5.688;2022-10-16T11:44:32;7.75;;;0.80;;
42244;SDS011;27912;51.828;5.688;2022-10-16T11:50:09;4.38;;;0.50;;
42244;SDS011;27912;51.828;5.688;2022-10-16T11:55:50;10.45;;;0.50;;
42244;SDS011;27912;51.828;5.688;2022-10-16T11:58:26;8.73;;;0.50;;
42244;SDS011;27912;51.828;5.688;2022-10-16T12:01:24;7.25;;;0.82;;
42244;SDS011;27912;51.828;5.688;2022-10-16T12:07:17;9.88;;;1.17;;
42244;SDS011;27912;51.828;5.688;2022-10-16T12:09:48;6.32;;;0.50;;
42244;SDS011;27912;51.828;5.688;2022-10-16T12:12:24;9.70;;;0.70;;
42244;SDS011;27912;51.828;5.688;2022-10-16T12:15:15;6.72;;;0.45;;
42244;SDS011;27912;51.828;5.688;2022-10-16T12:17:50;6.80;;;0.50;;
42244;SDS011;27912;51.828;5.688;2022-10-16T12:22:48;7.47;;;0.60;;
42244;SDS011;27912;51.828;5.688;2022-10-16T12:25:34;6.45;;;0.60;;
42244;SDS011;27912;51.828;5.688;2022-10-16T12:28:06;6.57;;;0.70;;
42244;SDS011;27912;51.828;5.688;2022-10-16T12:31:02;7.88;;;0.50;;
42244;SDS011;27912;51.828;5.688;2022-10-16T12:33:34;5.07;;;0.60;;
42244;SDS011;27912;51.828;5.688;2022-10-16T12:36:02;8.43;;;0.53;;
42244;SDS011;27912;51.828;5.688;2022-10-16T12:38:38;9.40;;;0.68;;
42244;SDS011;27912;51.828;5.688;2022-10-16T12:41:12;8.15;;;0.47;;
42244;SDS011;27912;51.828;5.688;2022-10-16T12:43:48;3.97;;;0.45;;
42244;SDS011;27912;51.828;5.688;2022-10-16T12:46:26;8.40;;;0.52;;
42244;SDS011;27912;51.828;5.688;2022-10-16T12:49:06;5.57;;;0.85;;
42244;SDS011;27912;51.828;5.688;2022-10-16T12:54:42;12.30;;;0.75;;
42244;SDS011;27912;51.828;5.688;2022-10-16T12:56:49;5.15;;;0.40;;
42244;SDS011;27912;51.828;5.688;2022-10-16T13:00:07;7.05;;;0.50;;
42244;SDS011;27912;51.828;5.688;2022-10-16T13:11:05;6.28;;;0.50;;
42244;SDS011;27912;51.828;5.688;2022-10-16T13:17:04;4.78;;;0.40;;
42244;SDS011;27912;51.828;5.688;2022-10-16T13:25:38;6.60;;;0.50;;
42244;SDS011;27912;51.828;5.688;2022-10-16T13:28:27;8.98;;;1.48;;
42244;SDS011;27912;51.828;5.688;2022-10-16T13:30:59;6.30;;;0.65;;
42244;SDS011;27912;51.828;5.688;2022-10-16T13:33:39;4.45;;;0.38;;
42244;SDS011;27912;51.828;5.688;2022-10-16T13:36:17;7.38;;;0.80;;
42244;SDS011;27912;51.828;5.688;2022-10-16T13:38:46;6.97;;;0.88;;
42244;SDS011;27912;51.828;5.688;2022-10-16T13:41:16;5.50;;;0.55;;
42244;SDS011;27912;51.828;5.688;2022-10-16T13:43:50;5.45;;;0.50;;
42244;SDS011;27912;51.828;5.688;2022-10-16T13:46:18;6.72;;;0.60;;
42244;SDS011;27912;51.828;5.688;2022-10-16T13:48:55;9.02;;;0.60;;
42244;SDS011;27912;51.828;5.688;2022-10-16T13:51:22;7.40;;;0.65;;
42244;SDS011;27912;51.828;5.688;2022-10-16T13:53:47;8.40;;;0.60;;
42244;SDS011;27912;51.828;5.688;2022-10-16T13:56:15;8.15;;;0.60;;
42244;SDS011;27912;51.828;5.688;2022-10-16T13:58:42;3.20;;;0.40;;
42244;SDS011;27912;51.828;5.688;2022-10-16T14:01:20;7.72;;;0.55;;
42244;SDS011;27912;51.828;5.688;2022-10-16T14:03:50;5.65;;;0.57;;
42244;SDS011;27912;51.828;5.688;2022-10-16T14:06:17;6.78;;;0.40;;
42244;SDS011;27912;51.828;5.688;2022-10-16T14:08:52;7.18;;;0.85;;
42244;SDS011;27912;51.828;5.688;2022-10-16T14:11:27;6.93;;;0.73;;
42244;SDS011;27912;51.828;5.688;2022-10-16T14:13:53;6.60;;;0.60;;
42244;SDS011;27912;51.828;5.688;2022-10-16T14:16:21;6.63;;;1.02;;
42244;SDS011;27912;51.828;5.688;2022-10-16T14:18:57;8.10;;;0.50;;
42244;SDS011;27912;51.828;5.688;2022-10-16T14:21:28;6.97;;;0.70;;
42244;SDS011;27912;51.828;5.688;2022-10-16T14:23:54;5.38;;;0.60;;
42244;SDS011;27912;51.828;5.688;2022-10-16T14:26:26;5.53;;;0.60;;
42244;SDS011;27912;51.828;5.688;2022-10-16T14:29:04;7.10;;;1.13;;
42244;SDS011;27912;51.828;5.688;2022-10-16T14:31:39;6.55;;;0.40;;
42244;SDS011;27912;51.828;5.688;2022-10-16T14:36:52;9.57;;;0.68;;
42244;SDS011;27912;51.828;5.688;2022-10-16T14:39:22;10.25;;;0.60;;
42244;SDS011;27912;51.828;5.688;2022-10-16T14:41:51;7.63;;;0.60;;
42244;SDS011;27912;51.828;5.688;2022-10-16T14:44:17;6.60;;;0.65;;
42244;SDS011;27912;51.828;5.688;2022-10-16T14:46:44;8.63;;;0.70;;
42244;SDS011;27912;51.828;5.688;2022-10-16T14:51:39;5.80;;;0.57;;
42244;SDS011;27912;51.828;5.688;2022-10-16T14:54:09;6.43;;;0.40;;
42244;SDS011;27912;51.828;5.688;2022-10-16T14:56:44;5.78;;;0.47;;
42244;SDS011;27912;51.828;5.688;2022-10-16T14:59:23;6.28;;;0.65;;
42244;SDS011;27912;51.828;5.688;2022-10-16T15:01:53;4.60;;;0.40;;
42244;SDS011;27912;51.828;5.688;2022-10-16T15:04:19;6.47;;;0.70;;
42244;SDS011;27912;51.828;5.688;2022-10-16T15:06:45;7.18;;;1.30;;
42244;SDS011;27912;51.828;5.688;2022-10-16T15:09:10;2.83;;;0.40;;
42244;SDS011;27912;51.828;5.688;2022-10-16T15:11:37;6.20;;;0.60;;
42244;SDS011;27912;51.828;5.688;2022-10-16T15:14:03;4.68;;;0.68;;
42244;SDS011;27912;51.828;5.688;2022-10-16T15:16:28;6.07;;;0.40;;
42244;SDS011;27912;51.828;5.688;2022-10-16T15:18:54;7.57;;;0.60;;
42244;SDS011;27912;51.828;5.688;2022-10-16T15:21:27;9.95;;;1.05;;
42244;SDS011;27912;51.828;5.688;2022-10-16T15:23:56;5.70;;;0.50;;
42244;SDS011;27912;51.828;5.688;2022-10-16T15:26:23;5.53;;;0.55;;
42244;SDS011;27912;51.828;5.688;2022-10-16T15:28:50;5.50;;;0.40;;
42244;SDS011;27912;51.828;5.688;2022-10-16T15:31:15;9.82;;;0.50;;
42244;SDS011;27912;51.828;5.688;2022-10-16T15:33:41;8.55;;;0.60;;
42244;SDS011;27912;51.828;5.688;2022-10-16T15:36:07;8.43;;;0.70;;
42244;SDS011;27912;51.828;5.688;2022-10-16T15:38:32;6.40;;;0.60;;
42244;SDS011;27912;51.828;5.688;2022-10-16T15:40:58;8.45;;;0.57;;
42244;SDS011;27912;51.828;5.688;2022-10-16T15:43:23;6.95;;;0.57;;
42244;SDS011;27912;51.828;5.688;2022-10-16T15:45:58;7.15;;;0.60;;
42244;SDS011;27912;51.828;5.688;2022-10-16T15:48:25;8.40;;;0.43;;
42244;SDS011;27912;51.828;5.688;2022-10-16T15:50:51;8.40;;;0.50;;
42244;SDS011;27912;51.828;5.688;2022-10-16T15:53:16;4.43;;;0.60;;
42244;SDS011;27912;51.828;5.688;2022-10-16T15:55:42;5.13;;;0.85;;
42244;SDS011;27912;51.828;5.688;2022-10-16T15:58:07;6.20;;;0.50;;
42244;SDS011;27912;51.828;5.688;2022-10-16T16:00:33;5.45;;;0.52;;
42244;SDS011;27912;51.828;5.688;2022-10-16T16:02:58;9.52;;;0.55;;
42244;SDS011;27912;51.828;5.688;2022-10-16T16:05:24;5.90;;;0.60;;
42244;SDS011;27912;51.828;5.688;2022-10-16T16:07:50;7.50;;;0.63;;
42244;SDS011;27912;51.828;5.688;2022-10-16T16:10:16;8.85;;;0.70;;
42244;SDS011;27912;51.828;5.688;2022-10-16T16:12:42;20.30;;;3.20;;
42244;SDS011;27912;51.828;5.688;2022-10-16T16:15:08;13.90;;;2.65;;
42244;SDS011;27912;51.828;5.688;2022-10-16T16:17:35;6.28;;;1.00;;
42244;SDS011;27912;51.828;5.688;2022-10-16T16:20:01;6.95;;;0.90;;
42244;SDS011;27912;51.828;5.688;2022-10-16T16:22:27;8.35;;;0.70;;
42244;SDS011;27912;51.828;5.688;2022-10-16T16:24:53;7.53;;;0.70;;
42244;SDS011;27912;51.828;5.688;2022-10-16T16:27:19;6.40;;;0.75;;
42244;SDS011;27912;51.828;5.688;2022-10-16T16:29:49;10.70;;;0.90;;
42244;SDS011;27912;51.828;5.688;2022-10-16T16:32:15;7.13;;;1.23;;
42244;SDS011;27912;51.828;5.688;2022-10-16T16:34:41;6.05;;;0.65;;
42244;SDS011;27912;51.828;5.688;2022-10-16T16:37:06;10.00;;;0.82;;
42244;SDS011;27912;51.828;5.688;2022-10-16T16:39:32;9.77;;;0.80;;